13TE weather

Varisco Airport
Bryan, Texas, United States

Public forecast

Using degrees Fahrenheit for public forecast. Weather courtesy of forecast.io.

METAR (pilot weather report)

Closest report is Easterwood Field, 9.9 nm (18.3 km) ESE. Retrieved 2019/07/20 01:53 UTC (16 minutes ago):

KCLL 200153Z AUTO 16009KT 10SM CLR 31/23 A2993 RMK AO2 SLP130 T03110228

TAF (pilot weather forecast)

Forecast is more than 12 hours old.

Closest forecast is Easterwood Field, 9.9 nm (18.3 km) ESE. Retrieved 2019/07/19 00:39 UTC (1 day ago):

TAF KCLL 192336Z 2000/2024 17011KT P6SM SCT250 FM200900 18005KT P6SM FEW015 SCT025 TEMPO 2010/2013 BKN016 FM201400 17008KT P6SM SCT015 BKN025 FM201500 18010G17KT P6SM SCT035